Time;durP1;ratioP1;P1;durP2;ratioP2;P2;SDS_P1;SDS_P2;PMS_P1;PMS_P2;Temp;Humidity;BMP_temperature;BMP_pressure;BME280_temperature;BME280_humidity;BME280_pressure;Samples;Min_cycle;Max_cycle;Signal;HPM_P1;HPM_P2
2023/04/07 00:01:01;;;;;;;0.40;0.40;;;5.50;99.90;;;;;;4422362;32;20070;-73
2023/04/07 00:03:27;;;;;;;0.68;0.68;;;5.60;99.90;;;;;;4422456;32;20544;-74
2023/04/07 00:05:52;;;;;;;2.22;1.37;;;5.60;99.90;;;;;;4420970;32;20073;-72
2023/04/07 00:08:17;;;;;;;1.85;1.05;;;5.60;99.90;;;;;;4421195;32;20109;-72
2023/04/07 00:10:43;;;;;;;0.68;0.68;;;5.60;99.90;;;;;;4423517;32;20619;-71
2023/04/07 00:13:08;;;;;;;0.57;0.47;;;5.50;99.90;;;;;;4422471;32;20310;-71
2023/04/07 00:15:34;;;;;;;1.12;1.02;;;5.50;99.90;;;;;;4421581;32;20085;-70
2023/04/07 00:18:00;;;;;;;0.60;0.60;;;5.30;99.90;;;;;;4422273;32;20121;-71
2023/04/07 00:20:25;;;;;;;0.88;0.77;;;5.40;99.90;;;;;;4420592;32;20102;-75
2023/04/07 00:22:50;;;;;;;1.02;0.93;;;5.40;99.90;;;;;;4420683;32;20116;-73
2023/04/07 00:25:16;;;;;;;4.18;2.37;;;5.30;99.90;;;;;;4418553;32;20082;-71
2023/04/07 00:27:41;;;;;;;7.90;1.95;;;5.20;99.90;;;;;;4422267;32;20082;-71
2023/04/07 00:30:09;;;;;;;1.85;0.88;;;5.10;99.90;;;;;;4420536;32;20085;-72
2023/04/07 00:32:35;;;;;;;0.75;0.75;;;5.00;99.90;;;;;;4422735;32;20068;-70
2023/04/07 00:35:00;;;;;;;12.95;1.75;;;5.00;99.90;;;;;;4420685;32;20442;-71
2023/04/07 00:37:26;;;;;;;2.80;1.27;;;5.10;99.90;;;;;;4421762;32;20086;-71
2023/04/07 00:39:51;;;;;;;1.85;1.50;;;5.00;99.90;;;;;;4421844;32;20113;-71
2023/04/07 00:42:18;;;;;;;0.88;0.70;;;4.90;99.90;;;;;;4418672;32;20097;-71
2023/04/07 00:44:43;;;;;;;5.32;1.23;;;4.90;99.90;;;;;;4419666;32;20085;-73
2023/04/07 00:47:09;;;;;;;0.52;0.50;;;4.90;99.90;;;;;;4421935;32;20074;-71
2023/04/07 00:49:36;;;;;;;4.35;1.27;;;4.80;99.90;;;;;;4418743;32;20143;-74
2023/04/07 00:52:02;;;;;;;1.45;1.12;;;4.80;99.90;;;;;;4419310;32;20160;-70
2023/04/07 00:54:29;;;;;;;0.60;0.60;;;4.80;99.90;;;;;;4423200;32;20070;-75
2023/04/07 00:56:56;;;;;;;1.05;0.70;;;4.80;99.90;;;;;;4419937;32;20351;-70
2023/04/07 00:59:21;;;;;;;1.17;1.08;;;4.80;99.90;;;;;;4421451;32;20088;-71
2023/04/07 01:01:57;;;;;;;0.82;0.82;;;4.80;99.90;;;;;;4421856;32;20449;-70
2023/04/07 01:04:32;;;;;;;0.52;0.52;;;4.70;99.90;;;;;;4420043;32;20066;-71
2023/04/07 01:07:05;;;;;;;0.68;0.68;;;4.70;99.90;;;;;;4421057;32;20508;-72
2023/04/07 01:09:37;;;;;;;1.05;1.05;;;4.60;99.90;;;;;;4418419;32;20123;-74
2023/04/07 01:12:26;;;;;;;0.68;0.68;;;4.60;99.90;;;;;;4421344;32;20420;-71
2023/04/07 01:14:57;;;;;;;0.80;0.80;;;4.50;99.90;;;;;;4419143;32;20082;-73
2023/04/07 01:17:25;;;;;;;0.95;0.93;;;4.50;99.90;;;;;;4420787;32;20077;-71
2023/04/07 01:19:58;;;;;;;0.70;0.70;;;4.50;99.90;;;;;;4419409;32;20512;-73
2023/04/07 01:22:30;;;;;;;0.68;0.68;;;4.60;99.90;;;;;;4422323;32;20065;-73
2023/04/07 01:25:17;;;;;;;1.75;0.80;;;4.60;99.90;;;;;;4418456;32;20074;-71
2023/04/07 01:28:04;;;;;;;0.93;0.93;;;4.70;99.90;;;;;;4410041;32;20093;-72
2023/04/07 01:30:33;;;;;;;1.05;0.95;;;4.60;99.90;;;;;;4408457;32;20085;-73
2023/04/07 01:33:00;;;;;;;1.15;1.08;;;4.60;99.90;;;;;;4419972;32;20132;-71
2023/04/07 01:35:29;;;;;;;4.60;1.12;;;4.50;99.90;;;;;;4419625;32;20378;-71
2023/04/07 01:37:56;;;;;;;3.70;1.10;;;4.40;99.90;;;;;;4420581;32;20128;-71
2023/04/07 01:40:24;;;;;;;0.82;0.82;;;4.40;99.90;;;;;;4419107;32;20552;-72
2023/04/07 01:42:51;;;;;;;4.62;2.12;;;4.40;99.90;;;;;;4421554;32;20078;-71
2023/04/07 01:45:17;;;;;;;0.60;0.60;;;4.50;99.90;;;;;;4420198;32;20401;-72
2023/04/07 01:47:44;;;;;;;0.50;0.50;;;4.40;99.90;;;;;;4421159;32;20074;-72
2023/04/07 01:50:11;;;;;;;0.93;0.90;;;4.40;99.90;;;;;;4421283;32;20077;-74
2023/04/07 01:52:38;;;;;;;0.70;0.70;;;4.40;99.90;;;;;;4422162;32;20670;-71
2023/04/07 01:55:05;;;;;;;0.40;0.40;;;4.30;99.90;;;;;;4424909;32;20081;-71
2023/04/07 01:57:30;;;;;;;1.52;1.42;;;4.30;99.90;;;;;;4421938;32;20164;-71
2023/04/07 01:59:56;;;;;;;0.80;0.80;;;4.30;99.90;;;;;;4424415;32;20065;-71
2023/04/07 02:02:21;;;;;;;0.62;0.60;;;4.20;99.90;;;;;;4420739;32;20243;-75
2023/04/07 02:04:55;;;;;;;0.80;0.80;;;4.20;99.90;;;;;;4424823;32;20094;-72
2023/04/07 02:07:38;;;;;;;3.22;1.42;;;4.20;99.90;;;;;;4422638;32;20111;-72
2023/04/07 02:10:07;;;;;;;0.55;0.55;;;4.20;99.90;;;;;;4422015;32;20077;-72
2023/04/07 02:12:36;;;;;;;0.55;0.55;;;4.20;99.90;;;;;;4420640;32;20509;-71
2023/04/07 02:15:04;;;;;;;0.90;0.90;;;4.20;99.90;;;;;;4422001;32;20086;-71
2023/04/07 02:17:32;;;;;;;9.13;2.25;;;4.30;99.90;;;;;;4424868;32;20094;-72
2023/04/07 02:19:58;;;;;;;2.10;1.25;;;4.30;99.90;;;;;;4423847;32;20090;-71
2023/04/07 02:22:25;;;;;;;0.47;0.47;;;4.10;99.90;;;;;;4422780;32;20073;-72
2023/04/07 02:24:50;;;;;;;0.60;0.60;;;4.10;99.90;;;;;;4422642;32;20085;-72
2023/04/07 02:27:16;;;;;;;0.60;0.60;;;4.10;99.90;;;;;;4423550;32;20117;-71
2023/04/07 02:29:41;;;;;;;2.67;0.90;;;4.10;99.90;;;;;;4422228;32;20081;-72
2023/04/07 02:32:07;;;;;;;1.45;1.35;;;4.10;99.90;;;;;;4421033;32;20081;-70
2023/04/07 02:34:32;;;;;;;1.65;1.05;;;4.20;99.90;;;;;;4422513;32;20120;-72
2023/04/07 02:36:58;;;;;;;1.25;1.17;;;4.10;99.90;;;;;;4423251;32;20089;-71
2023/04/07 02:39:23;;;;;;;0.60;0.60;;;4.10;99.90;;;;;;4423312;32;20094;-72
2023/04/07 02:41:49;;;;;;;0.82;0.80;;;4.10;99.90;;;;;;4420895;32;20544;-75
2023/04/07 02:44:14;;;;;;;1.55;1.08;;;4.10;99.90;;;;;;4423129;32;20435;-72
2023/04/07 02:46:40;;;;;;;0.65;0.65;;;4.10;99.90;;;;;;4422159;32;20073;-72
2023/04/07 02:49:06;;;;;;;0.85;0.85;;;4.20;99.90;;;;;;4422320;32;20096;-71
2023/04/07 02:51:31;;;;;;;3.30;1.20;;;4.30;99.90;;;;;;4421483;32;20410;-72
2023/04/07 02:53:57;;;;;;;0.70;0.70;;;4.20;99.90;;;;;;4419847;32;20105;-75
2023/04/07 02:56:22;;;;;;;1.12;0.88;;;4.10;99.90;;;;;;4421834;32;20243;-71
2023/04/07 02:58:48;;;;;;;0.75;0.73;;;4.10;99.90;;;;;;4423970;32;20085;-71
2023/04/07 03:01:13;;;;;;;0.77;0.77;;;4.10;99.90;;;;;;4422745;32;20152;-71
2023/04/07 03:03:41;;;;;;;2.55;0.82;;;4.20;99.90;;;;;;4420360;32;20081;-71
2023/04/07 03:06:06;;;;;;;0.73;0.73;;;4.10;99.90;;;;;;4419198;32;20192;-70
2023/04/07 03:08:32;;;;;;;0.60;0.60;;;4.10;99.90;;;;;;4421150;32;20123;-71
2023/04/07 03:10:57;;;;;;;1.42;0.95;;;4.10;99.90;;;;;;4421554;32;20437;-70
2023/04/07 03:13:23;;;;;;;0.55;0.55;;;4.10;99.90;;;;;;4422188;32;20587;-70
2023/04/07 03:15:48;;;;;;;1.23;1.12;;;4.10;99.90;;;;;;4422661;32;20094;-74
2023/04/07 03:18:14;;;;;;;1.85;1.23;;;4.20;99.90;;;;;;4421866;32;20140;-73
2023/04/07 03:20:41;;;;;;;0.68;0.68;;;4.20;99.90;;;;;;4420985;32;20197;-73
2023/04/07 03:23:07;;;;;;;0.85;0.77;;;4.10;99.90;;;;;;4419515;32;20702;-73
2023/04/07 03:25:32;;;;;;;0.30;0.30;;;4.10;99.90;;;;;;4419685;32;20124;-71
2023/04/07 03:27:58;;;;;;;1.00;0.95;;;4.10;99.90;;;;;;4419582;32;20085;-71
2023/04/07 03:30:24;;;;;;;0.40;0.40;;;4.10;99.90;;;;;;4422930;32;20106;-71
2023/04/07 03:32:49;;;;;;;1.05;0.75;;;4.10;99.90;;;;;;4422618;32;20069;-72
2023/04/07 03:35:15;;;;;;;1.30;0.77;;;4.10;99.90;;;;;;4419481;32;20073;-70
2023/04/07 03:37:40;;;;;;;0.70;0.70;;;4.10;99.90;;;;;;4421174;32;20417;-71
2023/04/07 03:40:06;;;;;;;0.65;0.65;;;4.00;99.90;;;;;;4419572;32;20814;-71
2023/04/07 03:42:32;;;;;;;0.65;0.65;;;4.00;99.90;;;;;;4420761;32;20069;-71
2023/04/07 03:44:57;;;;;;;2.97;1.67;;;4.00;99.90;;;;;;4420097;32;20094;-72
2023/04/07 03:47:23;;;;;;;2.47;1.60;;;4.00;99.90;;;;;;4421967;32;20073;-73
2023/04/07 03:49:48;;;;;;;0.82;0.82;;;4.10;99.90;;;;;;4421120;32;20556;-71
2023/04/07 03:52:14;;;;;;;3.22;1.50;;;4.20;99.90;;;;;;4421607;32;20089;-72
2023/04/07 03:54:40;;;;;;;1.15;1.05;;;4.10;99.90;;;;;;4420319;32;20567;-71
2023/04/07 03:57:06;;;;;;;0.93;0.80;;;4.10;99.90;;;;;;4417676;32;20581;-74
2023/04/07 03:59:31;;;;;;;0.75;0.75;;;4.10;99.90;;;;;;4421870;32;20081;-73
2023/04/07 04:01:57;;;;;;;0.80;0.80;;;4.10;99.90;;;;;;4421388;32;20097;-71
2023/04/07 04:04:23;;;;;;;0.65;0.65;;;4.20;99.90;;;;;;4421679;32;20536;-71
2023/04/07 04:06:49;;;;;;;1.33;1.23;;;4.20;99.90;;;;;;4421633;32;20576;-72
2023/04/07 04:09:15;;;;;;;1.92;1.73;;;4.30;99.90;;;;;;4421254;32;20081;-71
2023/04/07 04:11:40;;;;;;;2.50;1.00;;;4.30;99.90;;;;;;4421481;32;20064;-72
2023/04/07 04:14:06;;;;;;;0.50;0.50;;;4.30;99.90;;;;;;4422013;32;20081;-72
2023/04/07 04:16:31;;;;;;;0.37;0.37;;;4.30;99.90;;;;;;4421702;32;20065;-71
2023/04/07 04:18:57;;;;;;;4.20;1.40;;;4.30;99.90;;;;;;4421979;32;20128;-71
2023/04/07 04:21:22;;;;;;;0.90;0.90;;;4.30;99.90;;;;;;4422225;32;20601;-72
2023/04/07 04:23:48;;;;;;;1.45;1.35;;;4.30;99.90;;;;;;4421887;32;20131;-71
2023/04/07 04:26:13;;;;;;;0.60;0.60;;;4.40;99.90;;;;;;4421576;32;20061;-72
2023/04/07 04:28:39;;;;;;;8.57;1.05;;;4.40;99.90;;;;;;4422346;32;20066;-72
2023/04/07 04:31:04;;;;;;;3.80;0.98;;;4.40;99.90;;;;;;4422310;32;20153;-72
2023/04/07 04:33:30;;;;;;;0.50;0.50;;;4.40;99.90;;;;;;4421813;32;20128;-71
2023/04/07 04:35:56;;;;;;;0.70;0.70;;;4.50;99.90;;;;;;4421269;32;20071;-73
2023/04/07 04:38:21;;;;;;;0.40;0.40;;;4.50;99.90;;;;;;4421670;32;20132;-72
2023/04/07 04:40:46;;;;;;;1.27;1.17;;;4.60;99.90;;;;;;4421482;32;20077;-71
2023/04/07 04:43:12;;;;;;;1.30;1.20;;;4.70;99.90;;;;;;4419210;32;20576;-72
2023/04/07 04:45:37;;;;;;;0.50;0.50;;;4.60;99.90;;;;;;4419835;32;20105;-72
2023/04/07 04:48:03;;;;;;;0.60;0.60;;;4.60;99.90;;;;;;4421252;32;20085;-72
2023/04/07 04:50:29;;;;;;;4.35;1.10;;;4.60;99.90;;;;;;4419811;32;20116;-75
2023/04/07 04:52:54;;;;;;;0.70;0.70;;;4.60;99.90;;;;;;4421875;32;20143;-72
2023/04/07 04:55:20;;;;;;;0.60;0.60;;;4.60;99.90;;;;;;4419379;32;20056;-74
2023/04/07 04:57:45;;;;;;;2.37;1.37;;;4.60;99.90;;;;;;4417037;32;20575;-71
2023/04/07 05:00:11;;;;;;;8.40;1.42;;;4.60;99.90;;;;;;4419962;32;20162;-71
2023/04/07 05:02:36;;;;;;;1.10;0.73;;;4.70;99.90;;;;;;4419962;32;20132;-70
2023/04/07 05:05:02;;;;;;;3.35;0.88;;;4.70;99.90;;;;;;4419198;32;20069;-71
2023/04/07 05:07:29;;;;;;;0.90;0.90;;;4.80;99.90;;;;;;4421497;32;21367;-71
2023/04/07 05:09:54;;;;;;;1.45;0.55;;;4.80;99.90;;;;;;4420620;32;20081;-70
2023/04/07 05:12:21;;;;;;;0.55;0.50;;;4.90;99.90;;;;;;4418193;32;20525;-72
2023/04/07 05:14:46;;;;;;;0.70;0.70;;;4.90;99.90;;;;;;4422896;32;20556;-71
2023/04/07 05:17:12;;;;;;;2.97;1.25;;;5.00;99.90;;;;;;4420568;32;20066;-70
2023/04/07 05:19:37;;;;;;;0.70;0.70;;;5.00;99.90;;;;;;4422277;32;20133;-71
2023/04/07 05:22:03;;;;;;;0.50;0.50;;;5.00;99.90;;;;;;4422713;32;20077;-70
2023/04/07 05:24:28;;;;;;;1.17;1.08;;;5.10;99.90;;;;;;4421291;32;20061;-71
2023/04/07 05:26:55;;;;;;;3.30;1.20;;;5.10;99.90;;;;;;4421042;32;20454;-70
2023/04/07 05:29:21;;;;;;;5.25;1.85;;;5.30;99.90;;;;;;4422749;32;20093;-72
2023/04/07 05:31:47;;;;;;;0.37;0.37;;;5.40;99.90;;;;;;4423438;32;20083;-72
2023/04/07 05:34:12;;;;;;;0.30;0.30;;;5.40;99.90;;;;;;4422171;32;20077;-71
2023/04/07 05:36:38;;;;;;;0.40;0.40;;;5.40;99.90;;;;;;4423161;32;20094;-71
2023/04/07 05:39:03;;;;;;;0.40;0.40;;;5.40;99.90;;;;;;4423752;32;20122;-73
2023/04/07 05:41:29;;;;;;;0.55;0.55;;;5.40;99.90;;;;;;4423681;32;20496;-73
2023/04/07 05:43:54;;;;;;;1.08;0.82;;;5.40;99.90;;;;;;4424264;32;20061;-72
2023/04/07 05:46:20;;;;;;;0.40;0.40;;;5.40;99.90;;;;;;4423879;32;20097;-72
2023/04/07 05:48:45;;;;;;;0.40;0.40;;;5.50;99.90;;;;;;4424455;32;20511;-69
2023/04/07 05:51:11;;;;;;;0.60;0.60;;;5.40;99.90;;;;;;4423481;32;20120;-72
2023/04/07 05:53:36;;;;;;;0.90;0.70;;;5.50;99.90;;;;;;4425702;32;20522;-71
2023/04/07 05:56:02;;;;;;;0.90;0.90;;;5.50;99.90;;;;;;4421861;32;20081;-73
2023/04/07 05:58:27;;;;;;;0.70;0.70;;;5.50;99.90;;;;;;4423549;32;20090;-72
2023/04/07 06:00:53;;;;;;;0.73;0.65;;;5.50;99.90;;;;;;4423754;32;20524;-71
2023/04/07 06:03:18;;;;;;;2.55;0.82;;;5.50;99.90;;;;;;4422477;32;20089;-71
2023/04/07 06:05:46;;;;;;;1.42;1.33;;;5.60;99.90;;;;;;4421274;32;20343;-70
2023/04/07 06:08:11;;;;;;;2.10;1.75;;;5.60;99.90;;;;;;4422249;32;20528;-71
2023/04/07 06:10:37;;;;;;;0.52;0.52;;;5.60;99.90;;;;;;4423942;32;20120;-70
2023/04/07 06:13:02;;;;;;;0.75;0.75;;;5.60;99.90;;;;;;4424321;32;20414;-70
2023/04/07 06:15:28;;;;;;;0.50;0.50;;;5.50;99.90;;;;;;4423237;32;20069;-72
2023/04/07 06:17:54;;;;;;;1.95;0.82;;;5.60;99.90;;;;;;4422549;32;20421;-72
2023/04/07 06:20:21;;;;;;;0.70;0.70;;;5.70;99.90;;;;;;4423976;32;20570;-70
2023/04/07 06:22:47;;;;;;;15.05;1.75;;;5.80;99.90;;;;;;4422450;32;20128;-73
2023/04/07 06:25:12;;;;;;;0.68;0.68;;;5.90;99.90;;;;;;4421693;32;20069;-70
2023/04/07 06:27:38;;;;;;;0.82;0.82;;;6.10;99.90;;;;;;4421862;32;20073;-71
2023/04/07 06:30:04;;;;;;;0.75;0.75;;;6.10;99.90;;;;;;4421485;32;20429;-74
2023/04/07 06:32:30;;;;;;;0.90;0.90;;;6.30;99.90;;;;;;4422956;32;20523;-72
2023/04/07 06:34:55;;;;;;;0.82;0.82;;;6.40;99.90;;;;;;4421233;32;20116;-70
2023/04/07 06:37:23;;;;;;;0.40;0.40;;;6.50;99.90;;;;;;4421582;32;20164;-71
2023/04/07 06:39:49;;;;;;;0.85;0.77;;;6.70;99.90;;;;;;4420004;32;20073;-70
2023/04/07 06:42:15;;;;;;;0.40;0.40;;;6.70;99.90;;;;;;4422153;32;20084;-70
2023/04/07 06:44:40;;;;;;;1.67;1.23;;;6.80;99.90;;;;;;4424416;32;20061;-70
2023/04/07 06:47:06;;;;;;;1.00;0.98;;;6.70;99.90;;;;;;4422423;32;20507;-71
2023/04/07 06:49:31;;;;;;;1.10;1.05;;;6.70;99.90;;;;;;4422805;32;20107;-71
2023/04/07 06:51:57;;;;;;;0.50;0.50;;;6.70;99.90;;;;;;4424536;32;20705;-71
2023/04/07 06:54:22;;;;;;;0.73;0.73;;;6.50;99.90;;;;;;4421214;32;20091;-73
2023/04/07 06:56:48;;;;;;;0.68;0.68;;;6.50;99.90;;;;;;4420800;32;20497;-70
2023/04/07 06:59:13;;;;;;;0.70;0.70;;;6.50;99.90;;;;;;4421703;32;20105;-71
2023/04/07 07:01:39;;;;;;;0.80;0.62;;;6.50;99.90;;;;;;4420297;32;20587;-72
2023/04/07 07:04:05;;;;;;;1.17;1.00;;;6.60;99.90;;;;;;4423677;32;20081;-70
2023/04/07 07:06:30;;;;;;;0.90;0.90;;;6.60;99.90;;;;;;4421503;32;20065;-74
2023/04/07 07:08:56;;;;;;;0.70;0.70;;;6.60;99.90;;;;;;4422086;32;20073;-69
2023/04/07 07:11:22;;;;;;;0.40;0.40;;;6.50;99.90;;;;;;4423217;32;20094;-72
2023/04/07 07:13:47;;;;;;;0.70;0.70;;;6.60;99.90;;;;;;4424102;32;20619;-69
2023/04/07 07:16:12;;;;;;;1.95;1.37;;;6.70;99.90;;;;;;4420034;32;20120;-71
2023/04/07 07:18:38;;;;;;;5.28;1.42;;;6.70;99.90;;;;;;4423759;32;20116;-71
2023/04/07 07:21:04;;;;;;;0.70;0.70;;;6.70;99.90;;;;;;4420830;32;20831;-72
2023/04/07 07:23:29;;;;;;;0.85;0.85;;;6.80;99.90;;;;;;4424086;32;20077;-72
2023/04/07 07:25:55;;;;;;;0.73;0.73;;;6.80;99.90;;;;;;4421669;32;20087;-72
2023/04/07 07:28:21;;;;;;;1.00;0.80;;;6.90;99.90;;;;;;4422124;32;20529;-71
2023/04/07 07:30:46;;;;;;;1.15;0.93;;;7.00;99.90;;;;;;4421784;32;20078;-71
2023/04/07 07:33:12;;;;;;;2.80;0.80;;;7.10;99.90;;;;;;4420187;32;20443;-71
2023/04/07 07:35:39;;;;;;;0.70;0.70;;;7.10;99.90;;;;;;4420812;32;20189;-74
2023/04/07 07:38:04;;;;;;;0.75;0.75;;;7.00;99.90;;;;;;4421072;32;20069;-71
2023/04/07 07:40:30;;;;;;;2.33;1.75;;;7.00;99.90;;;;;;4422741;32;20082;-71
2023/04/07 07:42:55;;;;;;;0.60;0.60;;;7.10;99.90;;;;;;4422391;32;20082;-70
2023/04/07 07:45:21;;;;;;;0.77;0.77;;;7.10;99.90;;;;;;4420708;32;20084;-71
2023/04/07 07:47:46;;;;;;;14.00;2.87;;;7.20;99.90;;;;;;4421997;32;20138;-74
2023/04/07 07:50:12;;;;;;;0.82;0.80;;;7.40;99.90;;;;;;4420761;32;20085;-73
2023/04/07 07:52:37;;;;;;;4.32;1.40;;;7.60;99.90;;;;;;4423695;32;20081;-74
2023/04/07 07:55:03;;;;;;;0.60;0.60;;;7.70;99.90;;;;;;4419965;32;20085;-71
2023/04/07 07:57:30;;;;;;;0.37;0.37;;;7.70;99.90;;;;;;4421576;32;20070;-72
2023/04/07 07:59:56;;;;;;;0.82;0.82;;;7.80;99.90;;;;;;4421629;32;20061;-72
2023/04/07 08:02:21;;;;;;;0.57;0.55;;;7.70;99.90;;;;;;4419157;32;20130;-72
2023/04/07 08:04:47;;;;;;;2.92;1.83;;;7.70;99.90;;;;;;4422463;32;20484;-70
2023/04/07 08:07:12;;;;;;;0.90;0.85;;;7.90;99.90;;;;;;4423097;32;20595;-70
2023/04/07 08:09:38;;;;;;;0.85;0.45;;;7.90;99.90;;;;;;4423066;32;20107;-69
2023/04/07 08:12:04;;;;;;;1.25;1.12;;;8.20;99.90;;;;;;4421080;32;20531;-69
2023/04/07 08:14:29;;;;;;;0.52;0.52;;;8.30;99.90;;;;;;4423045;32;20090;-70
2023/04/07 08:16:55;;;;;;;4.72;2.05;;;8.30;99.90;;;;;;4421984;32;20078;-72
2023/04/07 08:19:20;;;;;;;12.95;1.50;;;8.30;99.90;;;;;;4421382;32;20106;-72
2023/04/07 08:21:46;;;;;;;15.82;0.95;;;8.40;99.90;;;;;;4422959;32;20418;-71
2023/04/07 08:24:11;;;;;;;0.50;0.50;;;8.50;99.90;;;;;;4418154;32;20469;-75
2023/04/07 08:26:37;;;;;;;0.65;0.65;;;8.50;99.90;;;;;;4409294;32;20102;-74
2023/04/07 08:29:02;;;;;;;0.60;0.60;;;8.40;99.90;;;;;;4420838;32;20144;-71
2023/04/07 08:31:28;;;;;;;0.32;0.32;;;8.40;99.90;;;;;;4420085;32;20100;-71
2023/04/07 08:33:56;;;;;;;0.50;0.50;;;8.40;99.90;;;;;;4424270;32;20089;-71
2023/04/07 08:36:23;;;;;;;0.65;0.65;;;8.40;99.90;;;;;;4421008;32;20085;-72
2023/04/07 08:38:49;;;;;;;14.70;0.93;;;8.40;99.90;;;;;;4421649;32;20508;-74
2023/04/07 08:41:20;;;;;;;0.60;0.50;;;8.30;99.50;;;;;;4423305;32;20065;-71
2023/04/07 08:43:48;;;;;;;0.50;0.50;;;8.30;98.80;;;;;;4420296;32;20070;-71
2023/04/07 08:46:14;;;;;;;0.68;0.68;;;8.40;97.80;;;;;;4419994;32;20066;-72
2023/04/07 08:48:43;;;;;;;0.82;0.68;;;8.50;96.70;;;;;;4422488;32;20061;-72
2023/04/07 08:51:12;;;;;;;0.40;0.40;;;8.50;96.60;;;;;;4421132;32;20074;-74
2023/04/07 08:53:48;;;;;;;0.57;0.57;;;8.50;95.70;;;;;;4421146;32;20124;-73
2023/04/07 08:56:15;;;;;;;2.72;1.83;;;8.60;95.60;;;;;;4418204;32;20077;-75
2023/04/07 08:58:41;;;;;;;0.50;0.50;;;8.70;95.00;;;;;;4422343;32;20065;-73
2023/04/07 09:01:08;;;;;;;2.03;1.10;;;8.80;95.50;;;;;;4419849;32;20121;-74
2023/04/07 09:03:34;;;;;;;0.65;0.65;;;8.80;95.00;;;;;;4426241;32;20077;-70
2023/04/07 09:06:00;;;;;;;1.20;1.10;;;8.80;95.10;;;;;;4424820;32;20182;-72
2023/04/07 09:08:26;;;;;;;0.50;0.50;;;8.70;94.40;;;;;;4425140;32;20085;-70
2023/04/07 09:10:53;;;;;;;1.85;1.15;;;8.70;94.40;;;;;;4424250;32;20097;-72
2023/04/07 09:13:19;;;;;;;0.60;0.60;;;8.70;94.10;;;;;;4425055;32;20062;-72
2023/04/07 09:15:45;;;;;;;0.80;0.65;;;8.60;93.70;;;;;;4423134;32;20541;-72
2023/04/07 09:18:10;;;;;;;0.60;0.52;;;8.70;93.90;;;;;;4423788;32;20140;-71
2023/04/07 09:20:59;;;;;;;0.60;0.60;;;8.70;94.00;;;;;;4425985;32;20104;-70
2023/04/07 09:23:30;;;;;;;8.80;1.62;;;8.70;93.40;;;;;;4412443;32;20102;-70
2023/04/07 09:25:55;;;;;;;;;;;8.70;93.80;;;;;;4423125;32;20089;-70
2023/04/07 09:28:21;;;;;;;0.35;0.35;;;8.70;94.00;;;;;;4425574;32;19960;-71
2023/04/07 09:30:55;;;;;;;0.40;0.40;;;8.60;94.30;;;;;;4423406;32;20444;-71
2023/04/07 09:33:29;;;;;;;2.33;1.40;;;8.50;94.60;;;;;;4426219;32;20061;-71
2023/04/07 09:35:55;;;;;;;1.08;0.82;;;8.40;95.50;;;;;;4424630;32;20505;-73
2023/04/07 09:38:21;;;;;;;0.68;0.68;;;8.40;95.80;;;;;;4426045;32;20086;-72
2023/04/07 09:40:47;;;;;;;0.98;0.90;;;8.40;95.50;;;;;;4425250;32;20489;-71
2023/04/07 09:43:16;;;;;;;0.82;0.82;;;8.30;95.50;;;;;;4424339;32;20081;-73
2023/04/07 09:45:42;;;;;;;1.15;0.88;;;8.20;94.90;;;;;;4423978;32;20111;-71
2023/04/07 09:48:18;;;;;;;0.80;0.68;;;8.30;94.20;;;;;;4425612;32;20105;-72
2023/04/07 09:50:48;;;;;;;0.43;0.43;;;8.20;93.10;;;;;;4410812;32;20144;-73
2023/04/07 09:53:14;;;;;;;0.60;0.60;;;8.10;93.90;;;;;;4425521;32;20537;-72
2023/04/07 09:55:40;;;;;;;0.68;0.60;;;8.10;94.10;;;;;;4422573;32;20070;-70
2023/04/07 09:58:07;;;;;;;0.77;0.77;;;8.00;94.30;;;;;;4424293;32;20088;-71
2023/04/07 10:00:34;;;;;;;0.47;0.47;;;8.00;94.70;;;;;;4424161;32;20065;-69
2023/04/07 10:03:00;;;;;;;3.55;0.65;;;8.00;94.70;;;;;;4424501;32;20536;-70
2023/04/07 10:05:26;;;;;;;0.40;0.40;;;8.10;94.10;;;;;;4426003;32;20073;-72
2023/04/07 10:07:53;;;;;;;0.35;0.35;;;8.20;94.10;;;;;;4423258;32;20073;-70
2023/04/07 10:10:19;;;;;;;1.35;1.25;;;8.40;93.30;;;;;;4425081;32;20076;-70
2023/04/07 10:12:45;;;;;;;0.50;0.50;;;8.40;92.30;;;;;;4425044;32;20069;-72
2023/04/07 10:15:14;;;;;;;0.70;0.70;;;8.40;91.80;;;;;;4423916;32;20093;-71
2023/04/07 10:17:44;;;;;;;0.40;0.40;;;8.30;92.40;;;;;;4424254;32;20089;-70
2023/04/07 10:20:10;;;;;;;0.40;0.40;;;8.50;92.40;;;;;;4423812;32;20077;-72
2023/04/07 10:22:37;;;;;;;0.70;0.70;;;8.50;92.50;;;;;;4423826;32;20536;-70
2023/04/07 10:25:08;;;;;;;0.35;0.35;;;8.50;92.40;;;;;;4423468;32;20142;-72
2023/04/07 10:27:48;;;;;;;3.53;1.40;;;8.50;92.80;;;;;;4425473;32;20073;-69
2023/04/07 10:30:20;;;;;;;1.50;0.83;;;8.50;92.30;;;;;;4421126;32;20081;-71
2023/04/07 10:32:47;;;;;;;0.40;0.40;;;8.30;92.20;;;;;;4422358;32;20053;-71
2023/04/07 10:35:13;;;;;;;0.60;0.60;;;8.30;93.10;;;;;;4425279;32;20093;-71
2023/04/07 10:37:38;;;;;;;0.40;0.40;;;8.20;92.90;;;;;;4424728;32;20588;-71
2023/04/07 10:40:25;;;;;;;3.40;0.50;;;8.10;93.40;;;;;;4424815;32;20087;-71
2023/04/07 10:42:51;;;;;;;1.45;0.80;;;7.90;93.70;;;;;;4411050;32;20090;-71
2023/04/07 10:45:53;;;;;;;0.35;0.35;;;7.90;94.20;;;;;;4422244;32;20449;-71
2023/04/07 10:48:19;;;;;;;0.50;0.50;;;8.10;94.10;;;;;;4415703;32;20540;-72
2023/04/07 10:50:50;;;;;;;0.50;0.50;;;8.00;94.10;;;;;;4421094;32;20081;-73
2023/04/07 10:53:16;;;;;;;0.62;0.62;;;8.10;94.60;;;;;;4422438;32;20077;-72
2023/04/07 10:55:43;;;;;;;2.30;0.82;;;8.10;95.00;;;;;;4421548;32;20073;-72
2023/04/07 10:58:14;;;;;;;0.40;0.40;;;8.10;94.70;;;;;;4424121;32;20089;-72
2023/04/07 11:00:39;;;;;;;0.57;0.57;;;8.30;94.80;;;;;;4422681;32;20251;-75
2023/04/07 11:03:11;;;;;;;1.12;0.75;;;8.50;94.90;;;;;;4423275;32;20103;-70
2023/04/07 11:05:38;;;;;;;1.65;1.25;;;8.40;94.90;;;;;;4422710;32;20407;-70
2023/04/07 11:08:05;;;;;;;0.47;0.47;;;8.50;95.40;;;;;;4425408;32;20167;-69
2023/04/07 11:10:31;;;;;;;0.40;0.40;;;8.60;95.30;;;;;;4422630;32;20081;-72
2023/04/07 11:13:01;;;;;;;0.30;0.30;;;8.80;95.60;;;;;;4421538;32;20085;-74
2023/04/07 11:15:27;;;;;;;0.85;0.60;;;9.00;95.80;;;;;;4424356;32;20450;-70
2023/04/07 11:18:15;;;;;;;0.65;0.65;;;8.90;96.60;;;;;;4424592;32;20077;-70
2023/04/07 11:20:45;;;;;;;4.47;1.27;;;8.80;97.70;;;;;;4411027;32;20522;-70
2023/04/07 11:23:11;;;;;;;1.48;0.80;;;8.70;98.80;;;;;;4421699;32;20085;-72
2023/04/07 11:25:37;;;;;;;0.50;0.50;;;8.70;99.90;;;;;;4420999;32;20057;-72
2023/04/07 11:28:03;;;;;;;0.77;0.77;;;8.60;99.90;;;;;;4421818;32;20422;-70
2023/04/07 11:30:29;;;;;;;0.43;0.43;;;8.60;99.90;;;;;;4421452;32;20085;-72
2023/04/07 11:32:55;;;;;;;0.40;0.40;;;8.30;99.90;;;;;;4421967;32;20093;-70
2023/04/07 11:35:22;;;;;;;2.40;0.70;;;8.30;99.90;;;;;;4421401;32;20077;-72
2023/04/07 11:37:47;;;;;;;0.60;0.60;;;8.20;99.90;;;;;;4424008;32;20433;-72
2023/04/07 11:40:29;;;;;;;0.55;0.55;;;8.20;99.90;;;;;;4423666;32;20062;-71
2023/04/07 11:45:18;;;;;;;0.32;0.32;;;8.10;99.90;;;;;;4456175;32;98166;-67
2023/04/07 11:47:44;;;;;;;1.50;0.93;;;7.90;99.90;;;;;;4452377;32;21095;-66
2023/04/07 11:50:09;;;;;;;0.30;0.30;;;7.90;99.90;;;;;;4459177;32;20077;-63
2023/04/07 11:52:50;;;;;;;0.62;0.50;;;7.80;99.90;;;;;;4454465;32;20112;-65
2023/04/07 11:55:22;;;;;;;;;;;8.00;99.90;;;;;;4453321;32;20088;-66
2023/04/07 11:57:50;;;;;;;0.60;0.60;;;8.10;99.90;;;;;;4451957;32;20377;-66
2023/04/07 12:00:15;;;;;;;0.60;0.60;;;8.20;99.90;;;;;;4459519;32;20076;-66
2023/04/07 12:02:41;;;;;;;0.85;0.75;;;8.10;99.90;;;;;;4457136;32;20137;-66
2023/04/07 12:05:09;;;;;;;0.55;0.55;;;8.10;99.90;;;;;;4451619;32;20089;-67
2023/04/07 12:07:37;;;;;;;0.70;0.70;;;8.10;99.90;;;;;;4449833;32;20508;-66
2023/04/07 12:10:19;;;;;;;0.65;0.65;;;8.30;99.90;;;;;;4444085;32;20115;-65
2023/04/07 12:12:46;;;;;;;0.52;0.52;;;8.40;99.90;;;;;;4454554;32;20077;-64
2023/04/07 12:15:12;;;;;;;0.45;0.40;;;8.40;99.90;;;;;;4428282;32;20492;-64
2023/04/07 12:17:45;;;;;;;0.50;0.50;;;8.30;99.90;;;;;;4437094;32;20081;-67
2023/04/07 12:20:11;;;;;;;0.40;0.40;;;8.30;99.90;;;;;;4437856;32;20097;-64
2023/04/07 12:22:36;;;;;;;0.40;0.40;;;8.40;99.90;;;;;;4448685;32;20065;-64
2023/04/07 12:25:02;;;;;;;0.40;0.40;;;8.60;99.90;;;;;;4451795;32;20777;-65
2023/04/07 12:27:27;;;;;;;0.50;0.50;;;8.40;99.90;;;;;;4453308;32;20057;-66
2023/04/07 12:29:53;;;;;;;0.60;0.60;;;8.30;99.90;;;;;;4454572;32;20168;-65
2023/04/07 12:32:18;;;;;;;0.40;0.40;;;8.30;99.90;;;;;;4460985;32;20134;-67
2023/04/07 12:34:44;;;;;;;0.40;0.40;;;8.30;99.90;;;;;;4451019;32;20084;-67
2023/04/07 12:37:09;;;;;;;0.80;0.60;;;8.10;99.90;;;;;;4452421;32;20065;-66
2023/04/07 12:39:35;;;;;;;0.98;0.88;;;7.90;99.90;;;;;;4453227;32;20505;-66
2023/04/07 12:42:00;;;;;;;0.43;0.43;;;7.60;99.90;;;;;;4450344;32;20085;-66
2023/04/07 12:44:26;;;;;;;0.90;0.57;;;7.60;99.90;;;;;;4449462;32;20077;-66
2023/04/07 12:46:52;;;;;;;1.25;0.55;;;7.70;99.90;;;;;;4452313;32;20076;-65
2023/04/07 12:49:17;;;;;;;0.50;0.50;;;7.90;99.90;;;;;;4454006;32;20123;-67
2023/04/07 12:51:43;;;;;;;0.40;0.40;;;7.80;99.90;;;;;;4452077;32;20088;-66
2023/04/07 12:54:08;;;;;;;0.57;0.57;;;7.70;99.90;;;;;;4447670;32;20089;-66
2023/04/07 12:56:34;;;;;;;1.20;0.75;;;7.50;99.90;;;;;;4442736;32;20061;-65
2023/04/07 12:58:59;;;;;;;0.30;0.30;;;7.40;99.90;;;;;;4439692;32;20081;-66